Time;durP1;ratioP1;P1;durP2;ratioP2;P2;SDS_P1;SDS_P2;PMS_P1;PMS_P2;Temp;Humidity;BMP_temperature;BMP_pressure;BME280_temperature;BME280_humidity;BME280_pressure;Samples;Min_cycle;Max_cycle;Signal;HPM_P1;HPM_P2
2022/06/22 04:00:43;;;;;;;10.82;6.07;;;17.00;99.90;;;;;;5887643;23;20370;-75
2022/06/22 04:03:11;;;;;;;8.40;7.05;;;17.20;99.90;;;;;;5003910;28;20539;-75
2022/06/22 04:05:43;;;;;;;6.78;6.13;;;17.30;99.90;;;;;;5011000;28;20042;-75
2022/06/22 04:08:33;;;;;;;7.32;6.50;;;17.40;99.90;;;;;;5011543;28;20034;-75
2022/06/22 04:11:12;;;;;;;8.65;5.90;;;17.60;99.90;;;;;;5008250;28;20050;-75
2022/06/22 04:13:51;;;;;;;7.88;5.80;;;17.70;99.90;;;;;;5013280;28;20109;-75
2022/06/22 04:16:22;;;;;;;6.65;5.43;;;17.90;99.90;;;;;;5014160;28;20038;-75
2022/06/22 04:18:56;;;;;;;7.32;5.70;;;18.00;99.90;;;;;;5013386;28;20467;-75
2022/06/22 04:21:27;;;;;;;6.78;5.28;;;18.30;99.90;;;;;;5012811;28;20034;-76
2022/06/22 04:23:58;;;;;;;7.32;5.68;;;18.50;99.90;;;;;;5011757;28;20030;-75
2022/06/22 04:26:28;;;;;;;7.18;5.45;;;18.60;99.90;;;;;;5011633;28;20049;-75
2022/06/22 04:29:04;;;;;;;8.18;4.80;;;18.80;99.90;;;;;;5012686;28;20497;-76
2022/06/22 04:31:34;;;;;;;6.22;4.88;;;19.00;99.90;;;;;;5012625;28;20042;-76
2022/06/22 04:34:11;;;;;;;5.85;5.28;;;19.10;99.90;;;;;;5012813;28;20038;-76
2022/06/22 04:36:51;;;;;;;5.75;4.68;;;19.20;99.90;;;;;;5014375;28;20039;-75
2022/06/22 04:39:46;;;;;;;4.82;4.32;;;19.30;99.90;;;;;;5013198;28;20026;-78
2022/06/22 04:42:11;;;;;;;5.40;4.63;;;19.40;99.90;;;;;;5011574;28;20050;-75
2022/06/22 04:44:44;;;;;;;6.50;3.92;;;19.60;99.90;;;;;;5012873;28;20358;-75
2022/06/22 04:47:26;;;;;;;6.75;4.53;;;19.40;99.90;;;;;;5011213;28;20039;-75
2022/06/22 04:49:57;;;;;;;6.88;4.72;;;19.40;99.90;;;;;;5012519;28;20026;-76
2022/06/22 04:52:38;;;;;;;4.82;4.32;;;19.50;99.90;;;;;;5011816;28;20091;-78
2022/06/22 04:55:05;;;;;;;7.88;4.47;;;19.50;99.90;;;;;;5012882;28;20116;-78
2022/06/22 04:57:37;;;;;;;8.40;4.57;;;19.60;99.90;;;;;;5012395;28;20038;-76
2022/06/22 05:00:40;;;;;;;7.82;4.70;;;19.70;99.90;;;;;;5013729;28;20065;-78
2022/06/22 05:03:15;;;;;;;6.57;4.40;;;19.80;99.90;;;;;;4989370;28;20050;-78
2022/06/22 05:05:41;;;;;;;5.60;4.25;;;19.90;99.90;;;;;;5012872;28;20053;-76
2022/06/22 05:08:23;;;;;;;7.03;4.28;;;20.00;99.90;;;;;;5014295;28;20034;-76
2022/06/22 05:10:56;;;;;;;7.32;4.65;;;20.20;99.90;;;;;;5013103;28;20046;-76
2022/06/22 05:13:33;;;;;;;6.80;4.55;;;20.20;99.90;;;;;;5013452;28;20084;-75
2022/06/22 05:16:02;;;;;;;4.80;4.30;;;20.20;99.90;;;;;;5014713;28;20038;-75
2022/06/22 05:18:33;;;;;;;7.75;5.22;;;20.30;99.90;;;;;;5017062;28;20035;-75
2022/06/22 05:21:27;;;;;;;7.97;4.68;;;20.40;99.90;;;;;;5014323;28;20998;-76
2022/06/22 05:23:56;;;;;;;7.90;3.95;;;20.40;99.90;;;;;;5015067;28;20038;-75
2022/06/22 05:26:24;;;;;;;7.53;4.00;;;20.40;99.90;;;;;;5015110;28;20034;-76
2022/06/22 05:29:00;;;;;;;5.85;4.35;;;20.30;99.90;;;;;;5014733;28;20042;-75
2022/06/22 05:31:33;;;;;;;6.63;5.10;;;20.50;99.90;;;;;;5014853;28;20532;-76
2022/06/22 05:34:02;;;;;;;6.65;5.00;;;20.40;99.90;;;;;;5014953;28;20495;-76
2022/06/22 05:36:31;;;;;;;7.15;4.40;;;20.60;99.90;;;;;;5015319;28;20031;-76
2022/06/22 05:38:59;;;;;;;8.93;4.20;;;20.60;99.90;;;;;;5014845;28;20478;-76
2022/06/22 05:41:29;;;;;;;6.00;3.60;;;20.70;99.90;;;;;;5018914;28;20070;-77
2022/06/22 05:43:58;;;;;;;4.65;3.53;;;20.70;99.40;;;;;;5019684;28;20088;-77
2022/06/22 05:46:24;;;;;;;6.15;3.60;;;20.80;98.70;;;;;;5017974;28;20515;-75
2022/06/22 05:48:51;;;;;;;4.32;3.80;;;20.80;98.90;;;;;;5017810;28;20174;-76
2022/06/22 05:51:44;;;;;;;4.22;3.58;;;20.80;98.60;;;;;;5017667;28;20121;-76
2022/06/22 05:54:21;;;;;;;5.55;3.38;;;20.80;97.70;;;;;;5017444;28;20109;-76
2022/06/22 05:56:52;;;;;;;4.78;3.33;;;20.80;97.40;;;;;;5017656;28;20105;-75
2022/06/22 05:59:25;;;;;;;4.15;3.33;;;20.90;97.30;;;;;;5019142;28;20030;-75
2022/06/22 06:02:03;;;;;;;7.43;3.22;;;21.00;97.80;;;;;;5018115;28;20038;-74
2022/06/22 06:04:43;;;;;;;5.88;3.50;;;21.00;96.80;;;;;;5018614;28;20112;-76
2022/06/22 06:07:36;;;;;;;4.60;3.47;;;21.10;96.30;;;;;;5016800;28;20113;-75
2022/06/22 06:10:06;;;;;;;6.30;3.40;;;21.20;96.60;;;;;;5017418;28;20536;-74
2022/06/22 06:12:39;;;;;;;7.53;3.50;;;21.20;96.50;;;;;;5017847;28;20041;-75
2022/06/22 06:15:06;;;;;;;7.18;3.20;;;21.30;95.90;;;;;;5017545;28;20039;-74
2022/06/22 06:17:44;;;;;;;7.05;3.30;;;21.20;95.10;;;;;;5018002;28;20452;-74
2022/06/22 06:20:33;;;;;;;5.10;3.13;;;21.30;96.10;;;;;;5018133;28;20038;-74
2022/06/22 06:23:11;;;;;;;6.35;3.00;;;21.30;94.10;;;;;;5017879;28;20026;-74
2022/06/22 06:28:44;;;;;;;3.75;2.72;;;21.50;95.20;;;;;;5017920;28;20039;-74
2022/06/22 06:31:57;;;;;;;6.45;3.08;;;21.60;95.30;;;;;;5017450;28;20424;-74
2022/06/22 06:34:38;;;;;;;5.25;2.90;;;22.10;92.80;;;;;;4985495;28;20042;-74
2022/06/22 06:37:19;;;;;;;7.95;3.05;;;22.30;92.30;;;;;;5017047;28;20085;-74
2022/06/22 06:39:48;;;;;;;6.97;2.85;;;22.40;91.70;;;;;;5017565;28;20042;-74
2022/06/22 06:42:46;;;;;;;4.10;2.88;;;22.50;91.40;;;;;;5017005;28;20070;-75
2022/06/22 06:45:17;;;;;;;4.95;2.88;;;22.20;91.50;;;;;;5015772;28;20035;-74
2022/06/22 06:47:48;;;;;;;5.25;3.05;;;22.00;92.80;;;;;;5017081;28;20117;-74
2022/06/22 06:50:17;;;;;;;3.92;2.60;;;21.80;93.30;;;;;;5016120;28;20097;-74
2022/06/22 06:52:58;;;;;;;5.95;2.95;;;21.70;92.90;;;;;;5016297;28;20038;-75
2022/06/22 06:56:01;;;;;;;3.20;2.40;;;21.60;91.90;;;;;;5016985;28;20106;-75
2022/06/22 06:58:50;;;;;;;5.03;2.47;;;21.60;91.30;;;;;;4993913;28;20046;-74
2022/06/22 07:01:21;;;;;;;3.00;2.10;;;21.60;91.90;;;;;;5016138;28;20389;-74
2022/06/22 07:03:49;;;;;;;4.20;2.30;;;21.50;90.90;;;;;;5017040;28;20030;-74
2022/06/22 07:06:15;;;;;;;4.45;2.42;;;21.50;90.20;;;;;;5016707;28;20117;-74
2022/06/22 07:08:49;;;;;;;7.35;2.50;;;21.30;90.70;;;;;;5017156;28;20109;-74
2022/06/22 07:11:48;;;;;;;3.50;2.35;;;21.20;91.60;;;;;;5016823;28;20034;-74
2022/06/22 07:14:37;;;;;;;6.43;2.50;;;21.10;90.40;;;;;;5016836;28;20045;-74
2022/06/22 07:17:09;;;;;;;6.10;2.10;;;21.00;91.20;;;;;;5017015;28;20081;-74
2022/06/22 07:19:43;;;;;;;4.68;2.25;;;21.00;91.10;;;;;;5014181;28;20038;-74
2022/06/22 07:22:17;;;;;;;5.10;2.38;;;21.00;91.20;;;;;;5017069;28;20042;-74
2022/06/22 07:24:50;;;;;;;4.65;2.45;;;20.90;90.40;;;;;;5019785;28;20038;-74
2022/06/22 07:27:34;;;;;;;5.90;2.47;;;20.90;93.80;;;;;;5016567;28;20822;-74
2022/06/22 07:30:03;;;;;;;7.63;3.00;;;20.70;92.60;;;;;;5033162;28;20104;-74
2022/06/22 07:33:07;;;;;;;12.63;3.20;;;20.60;94.10;;;;;;5015108;28;20085;-74
2022/06/22 07:35:49;;;;;;;7.13;2.80;;;20.70;92.10;;;;;;4994311;28;20503;-74
2022/06/22 07:38:30;;;;;;;8.35;2.78;;;20.80;92.10;;;;;;5016471;28;20129;-74
2022/06/22 07:43:41;;;;;;;7.78;3.05;;;21.00;91.20;;;;;;5015178;28;20069;-74
2022/06/22 07:46:09;;;;;;;9.55;2.90;;;21.10;91.10;;;;;;5014706;28;20504;-74
2022/06/22 07:48:40;;;;;;;6.95;2.90;;;21.20;91.50;;;;;;5015645;28;20793;-74
2022/06/22 07:51:13;;;;;;;8.50;3.00;;;21.20;91.70;;;;;;5013932;28;20058;-74
2022/06/22 07:53:46;;;;;;;5.65;3.00;;;21.40;91.40;;;;;;5016522;28;20084;-74
2022/06/22 07:56:33;;;;;;;4.90;2.85;;;21.50;90.80;;;;;;5007307;28;20526;-73
2022/06/22 07:59:12;;;;;;;8.25;3.55;;;21.60;90.60;;;;;;5009152;28;20038;-74
2022/06/22 08:01:40;;;;;;;6.90;3.88;;;21.70;90.90;;;;;;4997464;28;20503;-73
2022/06/22 08:04:27;;;;;;;6.60;4.45;;;21.70;90.90;;;;;;4995648;28;20038;-73
2022/06/22 08:07:02;;;;;;;10.50;4.43;;;21.80;90.70;;;;;;4995500;28;20035;-74
2022/06/22 08:09:38;;;;;;;6.72;3.35;;;22.00;91.40;;;;;;4995864;28;20138;-73
2022/06/22 08:12:28;;;;;;;7.00;3.00;;;21.80;91.00;;;;;;4995291;28;20034;-74
2022/06/22 08:14:54;;;;;;;9.75;3.28;;;21.90;92.30;;;;;;4995309;28;20101;-74
2022/06/22 08:17:37;;;;;;;7.68;3.35;;;22.00;91.60;;;;;;4997595;28;20439;-74
2022/06/22 08:20:04;;;;;;;7.97;3.40;;;22.10;91.90;;;;;;5015450;28;20045;-74
2022/06/22 08:22:30;;;;;;;5.28;3.10;;;22.10;91.40;;;;;;5013852;28;20130;-74
2022/06/22 08:24:57;;;;;;;4.60;3.20;;;22.40;90.50;;;;;;5014859;28;20074;-74
2022/06/22 08:27:25;;;;;;;7.95;3.22;;;22.60;90.30;;;;;;5014368;28;20038;-74
2022/06/22 08:29:52;;;;;;;10.68;3.30;;;22.90;89.70;;;;;;5014890;28;20046;-74
2022/06/22 08:32:24;;;;;;;9.10;3.30;;;23.10;86.20;;;;;;5015058;28;20034;-74
2022/06/22 08:34:55;;;;;;;8.50;3.22;;;23.10;87.30;;;;;;5015080;28;20038;-74
2022/06/22 08:37:36;;;;;;;9.35;3.05;;;23.20;86.60;;;;;;5014859;28;20073;-74
2022/06/22 08:40:34;;;;;;;9.13;3.10;;;23.40;85.00;;;;;;5014940;28;20034;-74
2022/06/22 08:43:21;;;;;;;5.40;3.38;;;23.40;83.50;;;;;;5011103;28;20069;-74
2022/06/22 08:45:57;;;;;;;12.55;3.25;;;23.50;82.80;;;;;;5014779;28;20069;-74
2022/06/22 08:48:51;;;;;;;10.43;3.33;;;23.40;84.40;;;;;;5014872;28;20093;-74
2022/06/22 08:51:36;;;;;;;6.13;3.13;;;23.40;83.60;;;;;;5009037;28;20050;-74
2022/06/22 08:54:38;;;;;;;8.45;3.35;;;23.60;82.10;;;;;;5014739;28;20336;-74
2022/06/22 08:57:22;;;;;;;7.07;2.92;;;23.80;81.60;;;;;;5013844;28;20105;-74
2022/06/22 09:00:00;;;;;;;8.65;3.38;;;23.80;83.30;;;;;;5014953;28;20501;-74
2022/06/22 09:02:34;;;;;;;10.15;3.13;;;23.90;81.30;;;;;;5015001;28;20159;-73
2022/06/22 09:05:30;;;;;;;9.23;3.80;;;24.10;81.30;;;;;;5011679;28;20124;-74
2022/06/22 09:08:11;;;;;;;7.82;3.22;;;24.60;83.30;;;;;;5016495;28;20039;-76
2022/06/22 09:10:57;;;;;;;6.13;3.15;;;25.10;81.40;;;;;;5019636;28;20042;-74
2022/06/22 09:13:29;;;;;;;6.70;2.92;;;25.20;80.90;;;;;;5015436;28;20102;-73
2022/06/22 09:16:19;;;;;;;8.88;3.13;;;25.00;82.80;;;;;;5026588;28;20177;-76
2022/06/22 09:19:02;;;;;;;11.38;3.40;;;25.40;78.50;;;;;;5027180;28;20113;-74
2022/06/22 09:21:57;;;;;;;9.63;3.08;;;25.60;80.90;;;;;;5017671;28;20520;-76
2022/06/22 09:24:41;;;;;;;6.70;3.25;;;25.90;78.30;;;;;;5018697;28;20038;-74
2022/06/22 09:27:16;;;;;;;7.28;3.13;;;26.30;76.90;;;;;;5021125;28;20128;-74
2022/06/22 09:29:47;;;;;;;9.52;3.40;;;26.50;77.50;;;;;;5018070;28;20050;-74
2022/06/22 09:32:36;;;;;;;7.30;3.55;;;26.60;74.70;;;;;;5007216;28;20038;-74
2022/06/22 09:35:11;;;;;;;6.38;3.42;;;26.60;77.30;;;;;;5009894;28;20030;-75
2022/06/22 09:38:14;;;;;;;9.82;3.75;;;26.40;76.50;;;;;;5010273;28;20101;-74
2022/06/22 09:40:54;;;;;;;9.10;3.88;;;26.20;81.00;;;;;;5007360;28;20046;-74
2022/06/22 09:43:37;;;;;;;5.72;3.65;;;25.90;76.50;;;;;;5012108;28;20053;-74
2022/06/22 09:46:23;;;;;;;8.95;4.07;;;25.60;78.50;;;;;;5007858;28;20573;-74
2022/06/22 09:49:16;;;;;;;7.85;3.63;;;25.00;84.30;;;;;;5021755;28;20034;-75
2022/06/22 09:52:09;;;;;;;11.07;4.25;;;24.70;84.40;;;;;;5005031;28;20061;-75
2022/06/22 09:57:51;;;;;;;6.80;4.30;;;24.20;84.70;;;;;;5004040;28;20045;-74
2022/06/22 10:00:45;;;;;;;8.30;4.32;;;24.10;88.20;;;;;;5008632;28;20034;-77
2022/06/22 10:03:14;;;;;;;5.97;3.90;;;24.20;86.10;;;;;;5013723;28;20033;-76
2022/06/22 10:05:51;;;;;;;7.93;4.28;;;24.40;88.30;;;;;;5021832;28;20042;-77
2022/06/22 10:08:19;;;;;;;8.00;4.22;;;24.60;88.80;;;;;;5006853;28;20034;-76
2022/06/22 10:10:59;;;;;;;8.90;4.18;;;24.90;87.80;;;;;;5007908;28;20118;-75
2022/06/22 10:13:30;;;;;;;9.85;4.30;;;25.20;87.00;;;;;;4995065;28;20031;-76
2022/06/22 10:16:32;;;;;;;12.27;4.50;;;25.30;90.00;;;;;;5006813;28;20049;-76
2022/06/22 10:19:16;;;;;;;10.80;4.40;;;25.20;83.90;;;;;;5019671;28;20062;-77
2022/06/22 10:22:13;;;;;;;9.43;4.00;;;25.60;81.40;;;;;;5013159;28;20062;-78
2022/06/22 10:24:56;;;;;;;9.27;4.57;;;25.70;85.10;;;;;;4995215;28;20109;-77
2022/06/22 10:27:48;;;;;;;10.85;3.83;;;26.20;81.40;;;;;;5003412;28;20045;-77
2022/06/22 10:30:51;;;;;;;11.32;3.75;;;26.40;79.90;;;;;;5004428;28;20055;-76
2022/06/22 10:33:34;;;;;;;11.65;3.90;;;26.40;81.80;;;;;;5005479;28;20034;-75
2022/06/22 10:36:43;;;;;;;6.68;3.65;;;26.10;83.70;;;;;;4997144;28;20041;-74
2022/06/22 10:39:27;;;;;;;10.93;4.10;;;26.10;84.30;;;;;;4998455;28;20030;-74
2022/06/22 10:45:12;;;;;;;13.05;4.00;;;26.30;82.10;;;;;;5019007;28;20104;-77
2022/06/22 10:47:48;;;;;;;8.60;3.95;;;26.60;84.80;;;;;;4997487;28;20039;-76
2022/06/22 10:50:47;;;;;;;7.57;4.25;;;26.70;79.90;;;;;;4995855;28;20042;-76
2022/06/22 10:53:43;;;;;;;10.43;4.15;;;27.00;81.40;;;;;;4994543;28;20070;-76
2022/06/22 10:56:16;;;;;;;10.05;4.70;;;26.90;78.10;;;;;;5036121;28;20093;-77
2022/06/22 10:59:02;;;;;;;14.90;4.40;;;26.80;76.90;;;;;;5036491;28;20038;-77
2022/06/22 11:01:49;;;;;;;8.30;4.50;;;26.70;77.40;;;;;;5036068;28;20121;-77
2022/06/22 11:04:32;;;;;;;11.18;4.43;;;26.60;78.90;;;;;;5036756;28;20038;-76
2022/06/22 11:07:20;;;;;;;10.77;3.90;;;26.70;79.80;;;;;;5036486;28;20475;-76
2022/06/22 11:10:02;;;;;;;14.85;4.30;;;26.70;78.30;;;;;;5036503;28;20042;-77
2022/06/22 11:12:31;;;;;;;17.48;4.20;;;26.50;81.90;;;;;;5036346;28;20030;-77
2022/06/22 11:15:34;;;;;;;12.32;4.18;;;26.40;80.00;;;;;;5036168;28;20518;-77
2022/06/22 11:18:00;;;;;;;16.58;3.97;;;26.20;80.50;;;;;;5014039;28;20039;-76
2022/06/22 11:20:51;;;;;;;15.10;3.97;;;26.10;80.20;;;;;;5014771;28;20030;-76
2022/06/22 11:23:29;;;;;;;9.70;4.20;;;25.90;81.90;;;;;;5016826;28;20042;-76
2022/06/22 11:33:12;;;;;;;9.55;4.05;;;25.20;84.20;;;;;;5007000;28;20042;-77
2022/06/22 11:36:01;;;;;;;11.65;4.43;;;25.10;85.80;;;;;;5033398;28;20554;-76
2022/06/22 11:38:57;;;;;;;9.43;4.57;;;25.00;85.60;;;;;;5035977;28;20108;-75
2022/06/22 11:41:30;;;;;;;7.35;4.53;;;24.80;86.80;;;;;;5035200;28;20122;-75
2022/06/22 11:44:14;;;;;;;9.48;4.32;;;24.80;87.80;;;;;;5027678;28;20041;-75
2022/06/22 11:46:52;;;;;;;11.18;4.90;;;24.60;89.10;;;;;;5001613;28;20035;-75
2022/06/22 11:49:41;;;;;;;9.02;4.57;;;24.40;90.00;;;;;;5007774;28;20125;-81
2022/06/22 11:52:24;;;;;;;7.28;4.88;;;24.10;90.40;;;;;;5023158;28;20040;-75
2022/06/22 11:55:30;;;;;;;9.77;4.88;;;24.00;91.40;;;;;;5034422;28;20440;-75
2022/06/22 11:58:17;;;;;;;9.05;4.78;;;24.00;91.00;;;;;;5019834;28;20134;-76
2022/06/22 12:01:03;;;;;;;11.18;4.70;;;24.00;90.80;;;;;;5014999;28;20045;-76
2022/06/22 12:03:38;;;;;;;8.35;4.70;;;24.10;91.00;;;;;;5016070;28;20475;-76
2022/06/22 12:06:30;;;;;;;7.75;5.18;;;24.20;90.70;;;;;;5015782;28;20038;-76
2022/06/22 12:09:17;;;;;;;11.25;5.25;;;24.30;90.90;;;;;;4996456;28;20093;-76
2022/06/22 12:11:51;;;;;;;11.93;5.10;;;24.40;91.00;;;;;;4994526;28;20035;-76
2022/06/22 12:15:10;;;;;;;7.57;5.72;;;24.30;92.70;;;;;;4996364;28;20031;-76
2022/06/22 12:18:09;;;;;;;13.60;6.05;;;24.40;93.30;;;;;;5007286;28;20096;-76
2022/06/22 12:21:04;;;;;;;9.77;5.90;;;24.20;94.80;;;;;;5031181;28;20072;-76
2022/06/22 12:23:40;;;;;;;7.70;6.63;;;24.20;94.70;;;;;;5036359;28;20166;-78
2022/06/22 12:26:35;;;;;;;11.25;7.38;;;24.20;95.80;;;;;;5018648;28;20045;-77
2022/06/22 12:29:23;;;;;;;9.10;6.93;;;24.10;97.10;;;;;;5009858;28;20046;-77
2022/06/22 12:31:56;;;;;;;12.88;8.02;;;24.00;97.10;;;;;;5005575;28;20030;-77
2022/06/22 12:34:31;;;;;;;10.43;7.93;;;24.00;97.80;;;;;;5023179;28;20040;-79
2022/06/22 12:37:01;;;;;;;11.20;8.45;;;23.90;98.30;;;;;;5029590;28;20034;-75
2022/06/22 12:39:52;;;;;;;11.35;8.10;;;23.90;98.40;;;;;;5014106;28;20125;-76
2022/06/22 12:42:39;;;;;;;12.32;9.25;;;24.10;98.40;;;;;;5016101;28;20117;-77
2022/06/22 12:45:05;;;;;;;10.57;9.25;;;24.10;99.90;;;;;;5001245;28;20049;-79
2022/06/22 12:47:52;;;;;;;10.85;9.73;;;23.80;99.90;;;;;;5019467;28;20062;-75
2022/06/22 12:50:44;;;;;;;12.23;9.60;;;23.50;99.90;;;;;;5027418;28;20046;-75
2022/06/22 12:53:27;;;;;;;13.40;10.32;;;23.40;99.90;;;;;;5029823;28;20125;-75
2022/06/22 12:55:58;;;;;;;13.05;9.43;;;23.20;99.90;;;;;;5030513;28;20037;-75
2022/06/22 12:58:33;;;;;;;12.80;9.93;;;23.00;99.90;;;;;;5030699;28;20040;-75
2022/06/22 13:01:00;;;;;;;12.75;9.60;;;23.00;99.90;;;;;;5028557;28;20038;-75
2022/06/22 13:03:34;;;;;;;13.45;9.57;;;22.90;99.90;;;;;;5029960;28;20146;-75
2022/06/22 13:06:00;;;;;;;12.73;9.82;;;22.90;99.90;;;;;;5030338;28;20034;-75
2022/06/22 13:08:27;;;;;;;10.40;9.15;;;23.00;99.90;;;;;;5030719;28;20029;-76
2022/06/22 13:11:02;;;;;;;8.50;7.20;;;23.20;99.90;;;;;;5027400;28;20104;-75
2022/06/22 13:13:56;;;;;;;8.50;7.28;;;23.20;99.90;;;;;;5025211;28;20038;-75
2022/06/22 13:16:23;;;;;;;7.97;7.10;;;22.80;99.90;;;;;;5031759;28;20037;-75
2022/06/22 13:19:16;;;;;;;10.15;7.35;;;22.80;99.90;;;;;;5031868;28;20450;-75
2022/06/22 13:22:21;;;;;;;7.97;6.50;;;23.10;99.90;;;;;;5029121;28;20128;-75
2022/06/22 13:25:05;;;;;;;12.80;7.15;;;23.00;99.90;;;;;;5011616;28;20507;-75
2022/06/22 13:27:48;;;;;;;8.40;6.95;;;23.10;99.90;;;;;;5030277;28;20065;-75
2022/06/22 13:30:47;;;;;;;11.57;7.63;;;23.10;99.90;;;;;;5028469;28;20610;-76
2022/06/22 13:33:19;;;;;;;9.13;7.40;;;23.00;99.90;;;;;;5025159;28;20046;-76
2022/06/22 13:35:59;;;;;;;10.15;8.27;;;23.00;99.90;;;;;;5031137;28;20038;-77
2022/06/22 13:38:46;;;;;;;10.25;8.18;;;23.10;99.90;;;;;;5024876;28;20509;-76
2022/06/22 13:41:19;;;;;;;9.25;8.07;;;23.10;99.90;;;;;;5048360;28;20514;-76
2022/06/22 13:44:02;;;;;;;9.90;7.93;;;22.90;99.90;;;;;;5040852;28;20038;-76
2022/06/22 13:47:04;;;;;;;8.68;7.68;;;23.00;99.90;;;;;;5028915;28;20054;-76
2022/06/22 13:50:18;;;;;;;9.95;7.53;;;23.00;99.90;;;;;;5031159;28;20084;-75
2022/06/22 13:52:54;;;;;;;9.48;7.63;;;22.90;99.90;;;;;;5022515;28;20045;-75
2022/06/22 13:55:37;;;;;;;11.25;9.20;;;22.70;99.90;;;;;;5022470;28;20491;-75
2022/06/22 13:58:10;;;;;;;12.77;9.15;;;22.60;99.90;;;;;;5027936;28;20046;-75
2022/06/22 14:00:57;;;;;;;12.07;8.80;;;22.60;99.90;;;;;;5019938;28;20495;-75
2022/06/22 14:03:40;;;;;;;12.05;9.70;;;22.40;99.90;;;;;;5028754;28;20042;-75
2022/06/22 14:06:16;;;;;;;12.65;9.70;;;22.10;99.90;;;;;;5018300;28;20488;-73
2022/06/22 14:08:51;;;;;;;12.77;11.05;;;21.80;99.90;;;;;;5031606;23;20104;-76
2022/06/22 14:11:31;;;;;;;14.00;10.85;;;21.70;99.90;;;;;;5016237;28;20078;-76
2022/06/22 14:14:23;;;;;;;13.90;10.05;;;21.60;99.90;;;;;;5017767;28;20590;-76
2022/06/22 14:17:10;;;;;;;11.60;9.50;;;21.70;99.90;;;;;;5028194;28;20030;-76
2022/06/22 14:19:55;;;;;;;11.02;8.95;;;21.40;99.90;;;;;;5021789;28;20066;-75
2022/06/22 14:22:32;;;;;;;10.00;8.95;;;21.20;99.90;;;;;;5015630;28;20073;-76
2022/06/22 14:24:59;;;;;;;10.82;9.02;;;21.40;99.90;;;;;;5029826;28;20036;-78
2022/06/22 14:27:49;;;;;;;9.45;8.48;;;21.50;99.90;;;;;;5020050;28;20045;-76
2022/06/22 14:30:25;;;;;;;8.70;7.28;;;21.80;99.90;;;;;;5006529;28;20438;-77
2022/06/22 14:33:50;;;;;;;9.02;7.50;;;21.80;99.90;;;;;;5037861;28;20037;-77
2022/06/22 14:36:28;;;;;;;10.05;7.80;;;21.70;99.90;;;;;;4919710;29;20044;-74
2022/06/22 14:39:12;;;;;;;10.40;7.97;;;22.00;99.90;;;;;;4990403;28;20623;-74
2022/06/22 14:41:41;;;;;;;9.20;7.43;;;22.10;99.90;;;;;;4998074;28;20043;-75
2022/06/22 14:44:20;;;;;;;9.52;7.40;;;22.10;99.90;;;;;;5009767;28;20026;-75
2022/06/22 14:47:16;;;;;;;8.60;7.32;;;22.30;99.90;;;;;;4996155;28;20050;-75
2022/06/22 14:50:14;;;;;;;7.75;6.95;;;22.30;99.90;;;;;;4998130;28;20531;-75
2022/06/22 14:52:48;;;;;;;9.15;7.30;;;22.40;99.90;;;;;;5010941;28;20097;-77
2022/06/22 14:55:38;;;;;;;7.72;6.38;;;22.50;99.90;;;;;;5011563;28;20111;-78
2022/06/22 14:58:03;;;;;;;6.75;5.93;;;23.00;99.90;;;;;;5016127;28;20113;-79
2022/06/22 15:00:44;;;;;;;7.35;5.43;;;23.50;99.90;;;;;;4999222;28;20575;-78
2022/06/22 15:03:32;;;;;;;6.50;5.82;;;23.70;99.90;;;;;;5034814;28;20039;-78
2022/06/22 15:06:05;;;;;;;7.88;5.70;;;23.80;99.90;;;;;;5001900;28;20062;-78
2022/06/22 15:08:55;;;;;;;7.97;5.90;;;23.80;99.90;;;;;;5015546;28;20037;-80
2022/06/22 15:14:41;;;;;;;6.97;5.18;;;24.20;99.90;;;;;;5010352;28;20031;-79
2022/06/22 15:17:32;;;;;;;6.22;5.22;;;24.00;99.90;;;;;;5015102;28;20070;-76
2022/06/22 15:20:23;;;;;;;5.80;4.68;;;23.70;99.90;;;;;;5006884;28;20037;-77
2022/06/22 15:23:08;;;;;;;5.95;5.10;;;23.40;99.90;;;;;;5013245;28;20045;-77
2022/06/22 15:25:59;;;;;;;7.05;5.53;;;23.20;99.90;;;;;;4979699;28;20050;-77
2022/06/22 15:29:01;;;;;;;6.53;5.15;;;23.00;99.90;;;;;;5000177;28;20048;-77
2022/06/22 15:31:36;;;;;;;6.78;5.60;;;22.80;99.90;;;;;;5013539;28;20527;-77
2022/06/22 15:34:05;;;;;;;9.70;5.43;;;22.70;99.90;;;;;;5001012;28;20574;-78
2022/06/22 15:36:39;;;;;;;6.72;5.82;;;22.60;99.90;;;;;;5008298;28;20073;-76
2022/06/22 15:39:18;;;;;;;7.82;6.22;;;22.60;99.90;;;;;;5005965;28;20118;-77
2022/06/22 15:41:55;;;;;;;6.03;5.45;;;22.70;99.90;;;;;;5008908;28;20566;-77
2022/06/22 15:44:45;;;;;;;6.88;5.97;;;22.60;99.90;;;;;;5004538;28;20049;-77
2022/06/22 15:47:21;;;;;;;8.25;7.00;;;22.30;99.90;;;;;;5010932;28;20031;-77
2022/06/22 15:50:06;;;;;;;7.80;6.97;;;22.30;99.90;;;;;;5013571;28;20182;-77
2022/06/22 15:52:42;;;;;;;7.60;6.65;;;22.40;99.90;;;;;;4999466;28;20031;-77
2022/06/22 15:55:13;;;;;;;7.50;5.68;;;22.60;99.90;;;;;;4997796;28;20039;-77
2022/06/22 15:57:38;;;;;;;8.65;6.47;;;22.70;99.90;;;;;;5011156;28;20061;-77
2022/06/22 16:00:04;;;;;;;9.52;6.00;;;22.80;99.90;;;;;;5014799;28;20049;-76
2022/06/22 16:02:37;;;;;;;7.85;6.20;;;22.90;99.90;;;;;;5014195;28;20114;-77
2022/06/22 16:05:17;;;;;;;6.50;5.85;;;22.80;99.90;;;;;;5002512;28;20045;-77
2022/06/22 16:08:11;;;;;;;8.07;5.78;;;22.90;99.90;;;;;;5015794;28;20092;-76
2022/06/22 16:13:45;;;;;;;8.27;6.53;;;22.70;99.90;;;;;;5011779;28;20100;-77
2022/06/22 16:16:42;;;;;;;8.00;6.45;;;22.60;99.90;;;;;;4999153;28;20063;-76
2022/06/22 16:19:16;;;;;;;9.40;7.05;;;22.60;99.90;;;;;;5008188;28;20043;-75
2022/06/22 16:22:02;;;;;;;8.05;6.75;;;22.60;99.90;;;;;;5008628;28;20821;-76
2022/06/22 16:24:42;;;;;;;8.27;6.55;;;22.70;99.90;;;;;;5006199;28;20122;-76
2022/06/22 16:27:22;;;;;;;8.50;6.88;;;22.60;99.90;;;;;;5009091;28;20958;-75
2022/06/22 16:29:53;;;;;;;8.48;7.53;;;22.40;99.90;;;;;;5006391;28;20046;-76
2022/06/22 16:32:36;;;;;;;10.10;6.88;;;22.40;99.90;;;;;;5005182;28;20046;-75
2022/06/22 16:35:21;;;;;;;8.82;6.80;;;22.50;99.90;;;;;;5006360;28;20097;-76
2022/06/22 16:38:21;;;;;;;8.23;7.15;;;22.50;99.90;;;;;;5007648;28;20037;-75
2022/06/22 16:41:07;;;;;;;10.77;9.07;;;22.60;99.90;;;;;;5006614;28;20822;-74
2022/06/22 16:43:41;;;;;;;10.18;8.35;;;22.60;99.90;;;;;;5008431;28;20041;-84
2022/06/22 16:46:17;;;;;;;11.23;9.52;;;22.40;99.90;;;;;;5004861;28;20050;-77
2022/06/22 16:48:57;;;;;;;10.30;8.77;;;22.10;99.90;;;;;;5005782;28;20034;-73
2022/06/22 16:51:39;;;;;;;11.50;10.32;;;21.70;99.90;;;;;;5007340;28;20122;-74
2022/06/22 16:54:07;;;;;;;11.50;10.25;;;21.60;99.90;;;;;;5002221;28;20054;-75
2022/06/22 16:56:43;;;;;;;12.90;10.35;;;21.50;99.90;;;;;;5005981;28;20035;-72
2022/06/22 16:59:22;;;;;;;12.43;10.50;;;21.40;99.90;;;;;;5003753;28;20085;-72
2022/06/22 17:01:55;;;;;;;13.18;9.40;;;21.50;99.90;;;;;;5007277;28;20047;-72
2022/06/22 17:04:34;;;;;;;10.68;9.15;;;21.60;99.90;;;;;;5012237;28;20034;-71
2022/06/22 17:07:22;;;;;;;9.88;8.93;;;21.50;99.90;;;;;;5007704;28;20038;-72
2022/06/22 17:09:56;;;;;;;12.65;11.02;;;21.30;99.90;;;;;;4996032;28;20121;-71
2022/06/22 17:12:25;;;;;;;13.02;10.77;;;21.40;99.90;;;;;;4996112;28;20102;-72
2022/06/22 17:14:54;;;;;;;12.60;10.88;;;21.60;99.90;;;;;;4996487;28;20092;-73
2022/06/22 17:17:40;;;;;;;13.85;11.38;;;21.50;99.90;;;;;;5013719;28;20034;-72
2022/06/22 17:20:15;;;;;;;11.75;10.35;;;21.40;99.90;;;;;;5005929;28;20126;-71
2022/06/22 17:22:46;;;;;;;12.57;11.15;;;21.30;99.90;;;;;;5025884;28;20093;-72
2022/06/22 17:25:35;;;;;;;14.52;11.82;;;21.20;99.90;;;;;;5014500;28;20515;-72
2022/06/22 17:28:10;;;;;;;11.77;10.05;;;21.20;99.90;;;;;;4994462;28;20097;-72
2022/06/22 17:30:43;;;;;;;11.52;10.32;;;21.10;99.90;;;;;;5000132;28;20101;-72
2022/06/22 17:33:12;;;;;;;12.48;11.25;;;21.10;99.90;;;;;;4994888;28;20045;-72
2022/06/22 17:35:59;;;;;;;13.20;11.00;;;21.20;99.90;;;;;;4993806;28;20043;-72
2022/06/22 17:38:46;;;;;;;12.77;10.43;;;21.20;99.90;;;;;;4998023;28;20034;-72
2022/06/22 17:41:44;;;;;;;13.23;9.40;;;21.20;99.90;;;;;;4998580;28;20039;-71
2022/06/22 17:44:26;;;;;;;12.55;10.68;;;21.20;99.90;;;;;;4985767;28;20479;-72
2022/06/22 17:46:57;;;;;;;12.43;11.20;;;21.20;99.90;;;;;;5003832;28;20040;-72
2022/06/22 17:49:26;;;;;;;12.27;10.93;;;21.10;99.90;;;;;;4997175;28;20037;-72
2022/06/22 17:51:55;;;;;;;12.48;11.20;;;21.30;99.90;;;;;;5012774;28;20133;-73
2022/06/22 17:54:29;;;;;;;16.23;11.52;;;21.20;99.90;;;;;;5010048;28;20035;-71
2022/06/22 17:57:01;;;;;;;13.20;11.40;;;21.40;99.90;;;;;;5001770;28;20034;-72
2022/06/22 17:59:39;;;;;;;13.10;11.27;;;21.50;99.90;;;;;;5010658;28;20050;-72
2022/06/22 18:02:26;;;;;;;11.25;10.18;;;21.60;99.90;;;;;;5011639;28;20096;-71
2022/06/22 18:05:10;;;;;;;11.88;10.65;;;21.70;99.90;;;;;;5013535;28;20110;-71
2022/06/22 18:07:39;;;;;;;12.15;10.85;;;21.70;99.90;;;;;;5001460;28;20038;-72
2022/06/22 18:10:09;;;;;;;13.77;11.25;;;21.80;99.90;;;;;;5001647;28;20050;-72
2022/06/22 18:12:39;;;;;;;11.43;10.23;;;21.70;99.90;;;;;;5012092;28;20097;-71
2022/06/22 18:15:11;;;;;;;13.48;11.38;;;21.60;99.90;;;;;;5013814;28;20258;-72